Terminal Aerodrome Forecast
Issued by NWS Amarillo, TX

Home | Current Version | Previous Version | Text Only | Print | Product List | Glossary On
Versions: 1 2 3 4 5 6 7 8 9 10 11 12 13 14 15 16 17 18 19
000
FTUS44 KAMA 240220 AAA
TAFGUY
TAF AMD
KGUY 240220Z 2402/2424 11011KT 1SM BR OVC002
      TEMPO 2402/2406 1/2SM FZFG
     FM240600 11009KT 3SM BR OVC003
      TEMPO 2406/2410 1/2SM FZFG
     FM241400 23010KT P6SM SCT010
     FM241600 28022G32KT P6SM SCT300
     FM241900 33020G30KT P6SM SCT300=

USA.gov is the U.S. government's official web portal to all federal, state and local government web resources and services.